sensor_id;sensor_type;location;lat;lon;timestamp;pressure;altitude;pressure_sealevel;temperature;humidity
71956;BME280;59829;50.562;6.258;2022-12-18T00:04:29;96591.16;;;-9.91;95.86
71956;BME280;59829;50.562;6.258;2022-12-18T00:14:29;96587.63;;;-10.12;98.99
71956;BME280;59829;50.562;6.258;2022-12-18T00:24:30;96585.13;;;-10.13;99.01
71956;BME280;59829;50.562;6.258;2022-12-18T00:34:30;96598.97;;;-10.29;98.14
71956;BME280;59829;50.562;6.258;2022-12-18T00:44:30;96601.56;;;-10.20;98.05
71956;BME280;59829;50.562;6.258;2022-12-18T00:54:31;96580.53;;;-9.86;99.67
71956;BME280;59829;50.562;6.258;2022-12-18T01:04:32;96576.59;;;-9.67;98.44
71956;BME280;59829;50.562;6.258;2022-12-18T01:14:33;96589.00;;;-10.35;96.95
71956;BME280;59829;50.562;6.258;2022-12-18T01:24:33;96583.16;;;-10.40;98.14
71956;BME280;59829;50.562;6.258;2022-12-18T01:34:35;96568.84;;;-10.59;96.69
71956;BME280;59829;50.562;6.258;2022-12-18T01:54:59;96571.91;;;-10.76;95.76
71956;BME280;59829;50.562;6.258;2022-12-18T02:05:00;96568.00;;;-10.60;96.99
71956;BME280;59829;50.562;6.258;2022-12-18T02:15:19;96571.03;;;-10.19;98.88
71956;BME280;59829;50.562;6.258;2022-12-18T02:36:02;96544.38;;;-9.67;96.33
71956;BME280;59829;50.562;6.258;2022-12-18T02:46:26;96558.59;;;-9.51;95.86
71956;BME280;59829;50.562;6.258;2022-12-18T02:56:35;96547.94;;;-9.37;95.37
71956;BME280;59829;50.562;6.258;2022-12-18T03:06:41;96535.69;;;-9.22;95.55
71956;BME280;59829;50.562;6.258;2022-12-18T03:16:44;96520.44;;;-9.62;93.95
71956;BME280;59829;50.562;6.258;2022-12-18T03:26:51;96515.81;;;-9.25;95.55
71956;BME280;59829;50.562;6.258;2022-12-18T03:36:52;96512.84;;;-8.78;96.85
71956;BME280;59829;50.562;6.258;2022-12-18T03:47:07;96498.16;;;-8.42;96.57
71956;BME280;59829;50.562;6.258;2022-12-18T03:57:19;96494.09;;;-8.17;96.48
71956;BME280;59829;50.562;6.258;2022-12-18T04:07:21;96486.63;;;-8.25;95.27
71956;BME280;59829;50.562;6.258;2022-12-18T04:17:23;96486.75;;;-7.91;94.93
71956;BME280;59829;50.562;6.258;2022-12-18T04:27:23;96460.28;;;-7.58;92.58
71956;BME280;59829;50.562;6.258;2022-12-18T04:37:24;96450.31;;;-7.04;91.29
71956;BME280;59829;50.562;6.258;2022-12-18T04:47:24;96440.13;;;-6.18;84.61
71956;BME280;59829;50.562;6.258;2022-12-18T04:57:24;96438.78;;;-5.39;80.83
71956;BME280;59829;50.562;6.258;2022-12-18T05:07:25;96454.91;;;-5.85;81.87
71956;BME280;59829;50.562;6.258;2022-12-18T05:17:25;96480.09;;;-6.36;83.30
71956;BME280;59829;50.562;6.258;2022-12-18T05:27:25;96485.84;;;-6.21;82.63
71956;BME280;59829;50.562;6.258;2022-12-18T05:37:26;96510.00;;;-6.46;83.15
71956;BME280;59829;50.562;6.258;2022-12-18T05:47:27;96508.38;;;-6.62;83.60
71956;BME280;59829;50.562;6.258;2022-12-18T05:57:28;96524.16;;;-7.32;83.46
71956;BME280;59829;50.562;6.258;2022-12-18T06:07:28;96506.75;;;-7.42;85.00
71956;BME280;59829;50.562;6.258;2022-12-18T06:17:29;96508.41;;;-7.38;85.14
71956;BME280;59829;50.562;6.258;2022-12-18T06:27:30;96507.56;;;-7.49;85.12
71956;BME280;59829;50.562;6.258;2022-12-18T06:37:30;96491.00;;;-7.46;85.31
71956;BME280;59829;50.562;6.258;2022-12-18T06:47:31;96499.22;;;-7.76;84.54
71956;BME280;59829;50.562;6.258;2022-12-18T06:57:32;96511.59;;;-7.91;86.07
71956;BME280;59829;50.562;6.258;2022-12-18T07:07:34;96520.03;;;-7.28;87.53
71956;BME280;59829;50.562;6.258;2022-12-18T07:17:34;96502.56;;;-6.61;84.05
71956;BME280;59829;50.562;6.258;2022-12-18T07:27:35;96508.34;;;-6.38;80.67
71956;BME280;59829;50.562;6.258;2022-12-18T07:37:35;96492.50;;;-6.26;79.51
71956;BME280;59829;50.562;6.258;2022-12-18T07:47:36;96459.25;;;-6.25;79.04
71956;BME280;59829;50.562;6.258;2022-12-18T07:57:36;96448.44;;;-6.16;79.33
71956;BME280;59829;50.562;6.258;2022-12-18T08:07:36;96436.59;;;-5.84;79.30
71956;BME280;59829;50.562;6.258;2022-12-18T08:17:37;96439.84;;;-5.76;79.44
71956;BME280;59829;50.562;6.258;2022-12-18T08:27:37;96429.75;;;-5.54;79.75
71956;BME280;59829;50.562;6.258;2022-12-18T08:37:37;96418.63;;;-5.17;78.31
71956;BME280;59829;50.562;6.258;2022-12-18T08:47:38;96417.06;;;-4.42;75.34
71956;BME280;59829;50.562;6.258;2022-12-18T08:57:38;96428.16;;;-3.96;72.47
71956;BME280;59829;50.562;6.258;2022-12-18T09:07:38;96433.94;;;-3.34;69.82
71956;BME280;59829;50.562;6.258;2022-12-18T09:17:39;96411.84;;;-2.62;68.67
71956;BME280;59829;50.562;6.258;2022-12-18T09:27:39;96406.97;;;-2.27;65.07
71956;BME280;59829;50.562;6.258;2022-12-18T09:37:39;96405.00;;;-2.13;66.29
71956;BME280;59829;50.562;6.258;2022-12-18T09:47:43;96414.03;;;-1.64;66.14
71956;BME280;59829;50.562;6.258;2022-12-18T09:57:47;96414.31;;;-1.05;62.28
71956;BME280;59829;50.562;6.258;2022-12-18T10:08:01;96398.63;;;-0.18;58.63
71956;BME280;59829;50.562;6.258;2022-12-18T10:28:14;96376.94;;;0.34;57.53
71956;BME280;59829;50.562;6.258;2022-12-18T10:48:21;96378.41;;;0.41;58.10
71956;BME280;59829;50.562;6.258;2022-12-18T10:58:31;96379.16;;;0.16;57.43
71956;BME280;59829;50.562;6.258;2022-12-18T11:08:33;96371.28;;;0.27;56.41
71956;BME280;59829;50.562;6.258;2022-12-18T11:18:34;96360.38;;;0.26;57.06
71956;BME280;59829;50.562;6.258;2022-12-18T11:28:43;96341.25;;;0.21;56.87
71956;BME280;59829;50.562;6.258;2022-12-18T11:38:45;96311.25;;;0.40;56.54
71956;BME280;59829;50.562;6.258;2022-12-18T11:48:56;96304.97;;;0.51;56.25
71956;BME280;59829;50.562;6.258;2022-12-18T11:59:24;96290.78;;;0.49;56.79
71956;BME280;59829;50.562;6.258;2022-12-18T12:30:03;96259.75;;;0.97;53.10
71956;BME280;59829;50.562;6.258;2022-12-18T12:40:05;96260.75;;;0.93;53.12
71956;BME280;59829;50.562;6.258;2022-12-18T12:50:13;96265.69;;;0.96;55.31
71956;BME280;59829;50.562;6.258;2022-12-18T13:00:16;96251.78;;;1.09;57.25
71956;BME280;59829;50.562;6.258;2022-12-18T13:20:19;96225.44;;;1.16;62.04
71956;BME280;59829;50.562;6.258;2022-12-18T13:30:51;96212.81;;;1.16;64.90
71956;BME280;59829;50.562;6.258;2022-12-18T13:40:57;96217.81;;;0.94;67.37
71956;BME280;59829;50.562;6.258;2022-12-18T13:51:04;96202.63;;;0.72;69.31
71956;BME280;59829;50.562;6.258;2022-12-18T14:01:21;96185.72;;;0.74;69.92
71956;BME280;59829;50.562;6.258;2022-12-18T14:11:22;96190.00;;;0.47;71.01
71956;BME280;59829;50.562;6.258;2022-12-18T14:21:25;96176.91;;;0.38;72.14
71956;BME280;59829;50.562;6.258;2022-12-18T14:31:28;96176.72;;;0.19;73.49
71956;BME280;59829;50.562;6.258;2022-12-18T14:41:29;96187.03;;;-0.15;75.51
71956;BME280;59829;50.562;6.258;2022-12-18T14:51:31;96197.03;;;-0.12;76.74
71956;BME280;59829;50.562;6.258;2022-12-18T15:01:35;96201.91;;;-0.36;78.37
71956;BME280;59829;50.562;6.258;2022-12-18T15:21:42;96222.44;;;-1.07;82.10
71956;BME280;59829;50.562;6.258;2022-12-18T15:31:43;96212.38;;;-1.36;84.14
71956;BME280;59829;50.562;6.258;2022-12-18T15:41:43;96216.97;;;-1.52;85.59
71956;BME280;59829;50.562;6.258;2022-12-18T15:52:04;96213.72;;;-1.56;86.66
71956;BME280;59829;50.562;6.258;2022-12-18T16:02:12;96196.03;;;-1.53;87.11
71956;BME280;59829;50.562;6.258;2022-12-18T16:12:24;96196.66;;;-1.44;86.65
71956;BME280;59829;50.562;6.258;2022-12-18T16:22:27;96189.44;;;-1.57;86.38
71956;BME280;59829;50.562;6.258;2022-12-18T16:32:28;96186.91;;;-1.57;86.27
71956;BME280;59829;50.562;6.258;2022-12-18T16:42:28;96191.25;;;-1.62;85.40
71956;BME280;59829;50.562;6.258;2022-12-18T16:52:29;96187.50;;;-1.79;85.66
71956;BME280;59829;50.562;6.258;2022-12-18T17:02:29;96203.94;;;-2.00;87.64
71956;BME280;59829;50.562;6.258;2022-12-18T17:12:29;96206.59;;;-2.06;87.83
71956;BME280;59829;50.562;6.258;2022-12-18T17:22:30;96193.84;;;-1.99;87.62
71956;BME280;59829;50.562;6.258;2022-12-18T17:32:30;96206.03;;;-2.18;88.57
71956;BME280;59829;50.562;6.258;2022-12-18T17:42:30;96194.41;;;-2.22;90.07
71956;BME280;59829;50.562;6.258;2022-12-18T17:52:30;96174.19;;;-2.16;90.67
71956;BME280;59829;50.562;6.258;2022-12-18T18:02:31;96175.91;;;-2.18;90.46
71956;BME280;59829;50.562;6.258;2022-12-18T18:12:31;96150.06;;;-1.87;86.53
71956;BME280;59829;50.562;6.258;2022-12-18T18:22:50;96135.75;;;-1.53;82.17
71956;BME280;59829;50.562;6.258;2022-12-18T18:32:51;96139.78;;;-1.47;80.95
71956;BME280;59829;50.562;6.258;2022-12-18T18:42:51;96158.72;;;-1.35;82.59
71956;BME280;59829;50.562;6.258;2022-12-18T18:52:51;96169.50;;;-1.63;86.43
71956;BME280;59829;50.562;6.258;2022-12-18T19:02:52;96171.22;;;-1.65;89.61
71956;BME280;59829;50.562;6.258;2022-12-18T19:12:52;96165.03;;;-1.52;91.01
71956;BME280;59829;50.562;6.258;2022-12-18T19:23:11;96175.22;;;-1.56;92.14
71956;BME280;59829;50.562;6.258;2022-12-18T19:33:11;96164.47;;;-1.63;93.13
71956;BME280;59829;50.562;6.258;2022-12-18T19:43:12;96159.97;;;-1.50;92.85
71956;BME280;59829;50.562;6.258;2022-12-18T19:53:12;96167.50;;;-1.50;93.17
71956;BME280;59829;50.562;6.258;2022-12-18T20:03:12;96187.47;;;-1.45;94.33
71956;BME280;59829;50.562;6.258;2022-12-18T20:13:14;96192.25;;;-1.36;95.02
71956;BME280;59829;50.562;6.258;2022-12-18T20:23:14;96208.56;;;-1.51;96.69
71956;BME280;59829;50.562;6.258;2022-12-18T20:33:15;96210.78;;;-1.40;99.45
71956;BME280;59829;50.562;6.258;2022-12-18T20:43:16;96214.09;;;-1.38;100.00
71956;BME280;59829;50.562;6.258;2022-12-18T20:53:16;96214.25;;;-1.44;100.00
71956;BME280;59829;50.562;6.258;2022-12-18T21:03:16;96209.91;;;-1.38;100.00
71956;BME280;59829;50.562;6.258;2022-12-18T21:13:18;96219.03;;;-1.35;100.00
71956;BME280;59829;50.562;6.258;2022-12-18T21:23:18;96227.28;;;-1.30;100.00
71956;BME280;59829;50.562;6.258;2022-12-18T21:33:18;96209.78;;;-1.33;100.00
71956;BME280;59829;50.562;6.258;2022-12-18T21:43:18;96204.47;;;-1.24;100.00
71956;BME280;59829;50.562;6.258;2022-12-18T21:53:38;96189.72;;;-1.35;100.00
71956;BME280;59829;50.562;6.258;2022-12-18T22:03:39;96184.47;;;-1.27;100.00
71956;BME280;59829;50.562;6.258;2022-12-18T22:13:39;96168.19;;;-1.14;100.00
71956;BME280;59829;50.562;6.258;2022-12-18T22:23:39;96165.63;;;-1.12;100.00
71956;BME280;59829;50.562;6.258;2022-12-18T22:33:40;96152.81;;;-1.05;100.00
71956;BME280;59829;50.562;6.258;2022-12-18T22:43:40;96149.91;;;-0.91;100.00
71956;BME280;59829;50.562;6.258;2022-12-18T22:53:41;96146.03;;;-0.73;100.00
71956;BME280;59829;50.562;6.258;2022-12-18T23:03:42;96131.44;;;-0.62;100.00
71956;BME280;59829;50.562;6.258;2022-12-18T23:13:43;96123.31;;;-0.44;100.00
71956;BME280;59829;50.562;6.258;2022-12-18T23:23:44;96100.97;;;-0.26;100.00
71956;BME280;59829;50.562;6.258;2022-12-18T23:33:45;96089.63;;;-0.13;100.00
71956;BME280;59829;50.562;6.258;2022-12-18T23:43:47;96079.84;;;0.03;100.00
71956;BME280;59829;50.562;6.258;2022-12-18T23:53:48;96055.81;;;0.17;100.00
